^^
Datos históricos de la estación: Murcia-Puente Tocinos
Diario Informe para Septiembre 2, 2019 Unidades:  Ingés    Métrico   Ambas
Diario Semanal Mensual Anual
  Máxima: Mínima: Promedio:
Temperatura: 86.9 °F 71.4 °F 78.6 °F
Punto de rocio: 63.5 °F 41.9 °F 51.8 °F
Humedad: 76% 24% 41%
Velocidad viento: 12.3mph 0mph 6.1mph
Racha viento: 23.5mph - -
Viento- - OSO
Presión: 30 in 29.8 in -
Precipitación: 0 in    
 
 
Tabla de datos para Septiembre 2, 2019
Hora Temperatura Punto de rocio Presión Viento Velocidad viento Racha viento Humedad Intensidad lluvia(por hora) Nubes
00:04 78.6 °F 50.9 °F 29.8 in Sur 4.3 mph 6.2 mph 38% 0 in
00:09 78.6 °F 50.9 °F 29.8 in Sur 4.2 mph 6.9 mph 38% 0 in
00:14 78.4 °F 50.7 °F 29.8 in Sur 4 mph 7 mph 38% 0 in
00:19 78.4 °F 50.4 °F 29.8 in SSO 4.1 mph 6.9 mph 37.6% 0 in
00:24 78.3 °F 50.2 °F 29.8 in SSO 4.3 mph 7.4 mph 37.5% 0 in
00:29 78.3 °F 49.8 °F 29.8 in SSO 4.5 mph 8.1 mph 37% 0 in
00:34 78.4 °F 50 °F 29.8 in SO 5.2 mph 8 mph 37% 0 in
00:39 78.4 °F 49.3 °F 29.8 in SO 5.2 mph 8.1 mph 36.1% 0 in
00:44 78.4 °F 49.3 °F 29.8 in OSO 5.2 mph 8.7 mph 36% 0 in
00:49 78.4 °F 49.3 °F 29.8 in OSO 5.1 mph 9.2 mph 36% 0 in
00:54 78.3 °F 49.1 °F 29.8 in OSO 4.7 mph 9 mph 36% 0 in
00:59 78.3 °F 49.1 °F 29.8 in OSO 4.3 mph 6 mph 36% 0 in
01:04 78.3 °F 48.7 °F 29.8 in OSO 3.6 mph 6.2 mph 35.4% 0 in
01:09 78.3 °F 48.4 °F 29.8 in OSO 3.7 mph 6.9 mph 35% 0 in
01:14 78.3 °F 47.8 °F 29.8 in SO 4 mph 9.2 mph 34.2% 0 in
01:19 78.4 °F 47.7 °F 29.8 in OSO 4.3 mph 9.2 mph 33.9% 0 in
01:24 78.8 °F 47.3 °F 29.8 in SO 5.2 mph 9.7 mph 33.1% 0 in
01:29 79 °F 47.5 °F 29.8 in SO 5.4 mph 10 mph 33% 0 in
01:34 79.2 °F 47.5 °F 29.8 in SO 5.9 mph 9.7 mph 33% 0 in
01:39 79.2 °F 47.3 °F 29.8 in SO 6 mph 10.4 mph 32.6% 0 in
01:44 79.3 °F 47.3 °F 29.8 in SO 6.2 mph 10 mph 32.5% 0 in
01:49 79.2 °F 47.7 °F 29.8 in OSO 6 mph 9 mph 33% 0 in
01:54 79 °F 47.5 °F 29.8 in SO 5.2 mph 8 mph 33% 0 in
01:59 78.6 °F 48 °F 29.8 in SO 5 mph 7 mph 34% 0 in
02:04 78.4 °F 48 °F 29.8 in SO 4.7 mph 7 mph 34.4% 0 in
02:09 78.1 °F 48.2 °F 29.8 in SO 4.7 mph 7.4 mph 35% 0 in
02:14 77.5 °F 48.2 °F 29.8 in SO 4.7 mph 8.1 mph 35.5% 0 in
02:19 77.5 °F 48.6 °F 29.9 in SO 4.8 mph 9.7 mph 36% 0 in
02:24 77.5 °F 48.6 °F 29.9 in SO 5.2 mph 10.7 mph 36% 0 in
02:29 77.5 °F 48.6 °F 29.9 in SO 5.5 mph 11 mph 36% 0 in
02:34 77.5 °F 48.6 °F 29.9 in SSO 6.2 mph 11 mph 36% 0 in
02:39 77.5 °F 48.6 °F 29.9 in SO 6.2 mph 11.8 mph 36% 0 in
02:44 77.4 °F 48.6 °F 29.9 in SSO 6.2 mph 12 mph 36.5% 0 in
02:49 77.2 °F 48.9 °F 29.9 in SO 6.3 mph 12 mph 37.1% 0 in
02:54 77.2 °F 49.6 °F 29.9 in OSO 6.4 mph 9.2 mph 38% 0 in
02:59 77.2 °F 49.8 °F 29.9 in OSO 5.9 mph 9 mph 38.3% 0 in
03:04 76.8 °F 50 °F 29.9 in OSO 4.7 mph 8.1 mph 39% 0 in
03:09 76.8 °F 50.4 °F 29.9 in OSO 4.3 mph 8 mph 39.4% 0 in
03:14 76.6 °F 50.5 °F 29.9 in SO 3.1 mph 5 mph 40% 0 in
03:19 76.6 °F 50.2 °F 29.9 in Sur 2.8 mph 4.6 mph 39.8% 0 in
03:24 76.3 °F 50.2 °F 29.9 in SSE 2 mph 6.2 mph 40% 0 in
03:29 75.7 °F 50.4 °F 29.9 in Sur 2.4 mph 6 mph 40.8% 0 in
03:34 75.6 °F 50.2 °F 29.9 in Sur 3.6 mph 6.2 mph 41% 0 in
03:39 75.6 °F 50.4 °F 29.9 in SSE 3.6 mph 6 mph 41.2% 0 in
03:44 75.6 °F 50.7 °F 29.9 in Sur 3.6 mph 6.4 mph 42% 0 in
03:49 75.7 °F 50.9 °F 29.9 in Sur 3.6 mph 7.4 mph 42% 0 in
03:54 76.1 °F 51.1 °F 29.9 in Sur 3.6 mph 7 mph 41.5% 0 in
03:59 76.5 °F 51.1 °F 29.9 in SSE 3.8 mph 8.5 mph 41% 0 in
04:04 76.6 °F 51.3 °F 29.9 in Sur 4.3 mph 9 mph 41% 0 in
04:09 77 °F 51.4 °F 29.9 in SSE 4.6 mph 10.2 mph 40.9% 0 in
04:14 77.5 °F 51.3 °F 29.9 in Sur 5.4 mph 11.8 mph 40% 0 in
04:19 77.9 °F 51.4 °F 29.9 in SO 5.8 mph 12 mph 39.7% 0 in
04:24 77.9 °F 51.6 °F 29.9 in SSO 6.9 mph 11 mph 40% 0 in
04:29 77.7 °F 51.4 °F 29.9 in Sur 6.2 mph 7 mph 40% 0 in
04:34 77.5 °F 51.3 °F 29.9 in Sur 4 mph 7 mph 40% 0 in
04:39 77.4 °F 51.8 °F 29.9 in SSE 3.8 mph 6.4 mph 40.9% 0 in
04:44 77.4 °F 51.1 °F 29.9 in SSO 3.1 mph 9.2 mph 40% 0 in
04:49 77.4 °F 51.1 °F 29.9 in Sur 3.5 mph 9 mph 40% 0 in
04:54 77.4 °F 51.3 °F 29.9 in SSO 4.7 mph 7 mph 40.1% 0 in
04:59 77.4 °F 51.4 °F 29.9 in Sur 4.7 mph 7 mph 40.7% 0 in
05:04 76.8 °F 51.3 °F 29.9 in SSO 4.7 mph 7.4 mph 41% 0 in
05:09 76.6 °F 51.3 °F 29.9 in SO 4.7 mph 10.7 mph 41% 0 in
05:14 76.8 °F 51.1 °F 29.9 in SO 4.7 mph 11 mph 40.5% 0 in
05:19 77.2 °F 50.9 °F 29.9 in SSO 5 mph 10 mph 40% 0 in
05:24 77.2 °F 51.4 °F 29.9 in SSO 5.9 mph 8 mph 40.6% 0 in
05:29 77 °F 51.4 °F 29.9 in SSO 5.3 mph 6.9 mph 41% 0 in
05:34 76.8 °F 51.3 °F 29.9 in SSO 3.6 mph 10.7 mph 41% 0 in
05:39 76.8 °F 51.3 °F 29.9 in SO 4 mph 11 mph 40.9% 0 in
05:44 76.8 °F 51.4 °F 29.9 in SSO 5.2 mph 11 mph 41.2% 0 in
05:49 76.6 °F 51.8 °F 29.9 in SSO 5.4 mph 12.3 mph 42% 0 in
05:54 76.3 °F 52.2 °F 29.9 in Sur 5.9 mph 13 mph 42.9% 0 in
05:59 75.9 °F 51.8 °F 29.9 in SO 5.5 mph 8 mph 43% 0 in
06:04 75.9 °F 51.8 °F 29.9 in Sur 4.7 mph 7 mph 43% 0 in
06:09 75.7 °F 52 °F 29.9 in Sur 4.4 mph 8.7 mph 43.4% 0 in
06:14 75.7 °F 51.8 °F 29.9 in Sur 3.6 mph 9.2 mph 43.2% 0 in
06:19 75.7 °F 51.8 °F 29.9 in SSO 3.9 mph 8.1 mph 43.2% 0 in
06:24 75.7 °F 51.6 °F 29.9 in Sur 4.7 mph 11.4 mph 42.9% 0 in
06:29 75.9 °F 51.6 °F 29.9 in SO 5.1 mph 12 mph 42.6% 0 in
06:34 76.1 °F 51.3 °F 29.9 in SO 6.2 mph 12 mph 42% 0 in
06:39 76.5 °F 51.6 °F 29.9 in SO 6.3 mph 12.5 mph 42% 0 in
06:44 76.5 °F 51.6 °F 29.9 in SO 6.4 mph 13 mph 42% 0 in
06:49 76.5 °F 51.4 °F 29.9 in SO 6.3 mph 13 mph 41.8% 0 in
06:54 76.5 °F 51.1 °F 29.9 in OSO 6.2 mph 13 mph 41.1% 0 in
06:59 76.5 °F 51.4 °F 29.9 in Oeste 6.2 mph 12 mph 41.6% 0 in
07:04 76.3 °F 51.4 °F 29.9 in OSO 6.2 mph 10.4 mph 42.1% 0 in
07:09 75.7 °F 51.6 °F 29.9 in Oeste 6 mph 11.8 mph 42.7% 0 in
07:14 75.7 °F 51.4 °F 29.9 in Oeste 5.4 mph 12 mph 42.7% 0 in
07:19 75.6 °F 51.4 °F 29.9 in ONO 5.7 mph 11.8 mph 43% 0 in
07:24 75.4 °F 51.3 °F 29.9 in Oeste 6.4 mph 12 mph 43% 0 in
07:29 75.4 °F 51.1 °F 29.9 in Oeste 6.8 mph 16.1 mph 42.7% 0 in
07:34 75.6 °F 50.9 °F 29.9 in ONO 8.1 mph 16 mph 42% 0 in
07:39 75.6 °F 50.9 °F 29.9 in Oeste 8.1 mph 13 mph 42% 0 in
07:44 75.6 °F 50.9 °F 29.9 in Oeste 8.1 mph 13 mph 42% 0 in
07:49 75.6 °F 50.5 °F 29.9 in ONO 8.1 mph 12.7 mph 41.5% 0 in
07:54 75.7 °F 50.5 °F 29.9 in ONO 8.1 mph 13 mph 41.2% 0 in
07:59 75.9 °F 50.4 °F 29.9 in ONO 8.3 mph 15 mph 40.8% 0 in
08:04 76.3 °F 50.5 °F 29.9 in ONO 8.7 mph 18.5 mph 40.5% 0 in
08:09 76.3 °F 50.4 °F 29.9 in ONO 9.3 mph 19 mph 40.3% 0 in
08:14 76.3 °F 50.4 °F 29.9 in ONO 10.7 mph 17.3 mph 40.3% 0 in
08:19 76.1 °F 50.7 °F 29.9 in ONO 10.7 mph 17 mph 40.9% 0 in
08:24 75.9 °F 50.5 °F 29.9 in ONO 10.7 mph 15 mph 41% 0 in
08:29 75.7 °F 50.9 °F 29.9 in NO 10.1 mph 14 mph 42% 0 in
08:34 75.4 °F 51.1 °F 29.9 in NO 8.5 mph 14 mph 42.8% 0 in
08:39 74.7 °F 51.3 °F 29.9 in NO 8.4 mph 14 mph 43.9% 0 in
08:44 74.5 °F 51.4 °F 29.9 in NO 8.1 mph 14 mph 44.8% 0 in
08:49 74.5 °F 51.3 °F 29.9 in NO 8.2 mph 16.1 mph 44.3% 0 in
08:54 74.7 °F 51.3 °F 29.9 in ONO 8.5 mph 16.1 mph 44% 0 in
08:59 74.7 °F 51.3 °F 29.9 in ONO 8.4 mph 14 mph 44% 0 in
09:04 74.7 °F 51.3 °F 29.9 in ONO 8.1 mph 10 mph 44% 0 in
09:09 74.8 °F 51.6 °F 29.9 in Oeste 7.1 mph 10 mph 44.2% 0 in
09:14 75 °F 51.6 °F 29.9 in SE 4.3 mph 7 mph 44% 0 in
09:19 75.4 °F 52.3 °F 29.9 in ESE 4 mph 5.8 mph 44.7% 0 in
09:24 75.4 °F 52.3 °F 29.9 in Este 2.9 mph 6.9 mph 44.5% 0 in
09:29 75.4 °F 52.3 °F 29.9 in Este 2.9 mph 7 mph 44.7% 0 in
09:34 75.6 °F 52.2 °F 29.9 in ENE 3.1 mph 6 mph 44.2% 0 in
09:39 75.7 °F 52.3 °F 29.9 in NO 3 mph 7.4 mph 44% 0 in
09:44 75.7 °F 52.2 °F 29.9 in NO 2.9 mph 11.5 mph 44% 0 in
09:49 75.7 °F 52.5 °F 29.9 in NO 3.2 mph 12 mph 44.3% 0 in
09:54 75.6 °F 52.2 °F 29.9 in NO 4.3 mph 10.2 mph 44% 0 in
09:59 75.6 °F 52.2 °F 29.9 in NO 4.9 mph 11.2 mph 44.2% 0 in
10:04 75.6 °F 52.5 °F 29.9 in NO 6.4 mph 11 mph 44.8% 0 in
10:09 75.6 °F 52.5 °F 29.9 in ONO 6.3 mph 10.4 mph 44.6% 0 in
10:14 75.7 °F 52.7 °F 29.9 in NO 6.2 mph 11.5 mph 44.6% 0 in
10:19 75.7 °F 52.3 °F 29.9 in ONO 6.2 mph 12.7 mph 44.2% 0 in
10:24 75.7 °F 52.3 °F 29.9 in NO 6.2 mph 15.2 mph 44% 0 in
10:29 75.7 °F 52.2 °F 29.9 in ONO 7 mph 17.3 mph 43.8% 0 in
10:34 75.9 °F 52.2 °F 29.9 in ONO 9.2 mph 17 mph 43.6% 0 in
10:39 75.9 °F 52.2 °F 29.9 in ONO 9.4 mph 17 mph 43.4% 0 in
10:44 76.3 °F 52 °F 29.9 in ONO 10 mph 17.3 mph 43% 0 in
10:49 76.5 °F 52.2 °F 29.9 in ONO 10.1 mph 18.5 mph 42.7% 0 in
10:54 76.8 °F 52.3 °F 29.9 in ONO 10.2 mph 19 mph 42.6% 0 in
10:59 77 °F 52.2 °F 29.9 in ONO 10.1 mph 19 mph 41.9% 0 in
11:04 77.2 °F 52.2 °F 29.9 in ONO 9.7 mph 18.4 mph 41.8% 0 in
11:09 77.2 °F 52.2 °F 29.9 in ONO 9.9 mph 18.4 mph 41.7% 0 in
11:14 77.4 °F 52 °F 29.9 in NO 10.7 mph 18 mph 41.4% 0 in
11:19 77.5 °F 51.6 °F 29.9 in ONO 10.3 mph 20.8 mph 40.4% 0 in
11:24 77.5 °F 51.3 °F 29.9 in ONO 9.2 mph 21 mph 39.9% 0 in
11:29 77.7 °F 50.7 °F 29.9 in ONO 9.8 mph 23.5 mph 39% 0 in
11:34 78.1 °F 50.4 °F 29.9 in ONO 11.2 mph 23 mph 38% 0 in
11:39 78.3 °F 50.4 °F 29.9 in ONO 11.2 mph 23 mph 37.7% 0 in
11:44 78.3 °F 49.8 °F 29.9 in ONO 11.2 mph 23 mph 37% 0 in
11:49 78.3 °F 49.8 °F 29.9 in ONO 11.5 mph 23 mph 37% 0 in
11:54 78.4 °F 49.6 °F 29.9 in ONO 12.3 mph 19 mph 36.6% 0 in
11:59 78.8 °F 50.2 °F 29.9 in NO 12.1 mph 19 mph 36.8% 0 in
12:04 79 °F 50 °F 29.9 in NO 11.4 mph 17.3 mph 36.4% 0 in
12:09 79.2 °F 50 °F 29.9 in ONO 11.2 mph 19.7 mph 36.1% 0 in
12:14 79.2 °F 49.8 °F 29.9 in NO 10.7 mph 20 mph 36% 0 in
12:19 79.3 °F 50.4 °F 29.9 in NO 10.9 mph 20.1 mph 36.4% 0 in
12:24 79.5 °F 50.2 °F 29.9 in NO 11.4 mph 21 mph 36% 0 in
12:29 79.7 °F 50.4 °F 29.9 in ONO 11.1 mph 18.4 mph 36% 0 in
12:34 79.9 °F 50.5 °F 29.9 in NO 10.2 mph 20.8 mph 36% 0 in
12:39 80.2 °F 50.9 °F 29.9 in NO 9.9 mph 21 mph 36% 0 in
12:44 80.2 °F 50.7 °F 29.9 in NO 9.2 mph 17.5 mph 35.8% 0 in
12:49 80.4 °F 50.9 °F 29.9 in NO 9.3 mph 18.4 mph 36% 0 in
12:54 80.4 °F 50.7 °F 29.9 in ONO 9.7 mph 18 mph 35.5% 0 in
12:59 80.6 °F 50.5 °F 29.9 in NO 9.6 mph 17.3 mph 35.2% 0 in
13:04 80.6 °F 50.5 °F 29.9 in NO 9.2 mph 18.4 mph 35% 0 in
13:09 80.8 °F 50.5 °F 29.9 in ONO 9.3 mph 18 mph 35% 0 in
13:14 81 °F 50.9 °F 29.9 in NO 9.7 mph 15.2 mph 35.2% 0 in
13:19 81 °F 50.7 °F 29.9 in NO 9.4 mph 16.1 mph 35% 0 in
13:24 81.1 °F 50.4 °F 29.9 in ONO 8.7 mph 18.4 mph 34.5% 0 in
13:29 81 °F 50.4 °F 29.9 in ONO 9 mph 18 mph 34.4% 0 in
13:34 81.1 °F 50.5 °F 29.9 in Oeste 10 mph 16.1 mph 34.4% 0 in
13:39 81.7 °F 50.5 °F 29.9 in ONO 9.6 mph 16 mph 34% 0 in
13:44 81.9 °F 50.5 °F 29.9 in ONO 8.7 mph 20.7 mph 33.9% 0 in
13:49 81.9 °F 50.7 °F 29.9 in NO 8.8 mph 21 mph 34% 0 in
13:54 82 °F 50.4 °F 29.9 in ONO 9.2 mph 16.3 mph 33.5% 0 in
13:59 81.9 °F 50.7 °F 29.9 in NO 9.2 mph 16.3 mph 33.9% 0 in
14:04 82.2 °F 50.5 °F 29.9 in NO 9.2 mph 16 mph 33.3% 0 in
14:09 82.6 °F 50.2 °F 29.9 in NO 8.8 mph 16.1 mph 32.7% 0 in
14:14 82.6 °F 50.4 °F 29.9 in ONO 7.6 mph 16 mph 32.9% 0 in
14:19 82.8 °F 50.7 °F 29.9 in ONO 7.5 mph 13 mph 33% 0 in
14:24 82.8 °F 50.5 °F 29.9 in NNO 6.9 mph 16.1 mph 32.8% 0 in
14:29 82.8 °F 50.7 °F 29.9 in NNO 7.3 mph 17.3 mph 32.9% 0 in
14:34 82.8 °F 50.5 °F 29.9 in ONO 8.5 mph 17 mph 32.9% 0 in
14:39 82.6 °F 50.5 °F 29.9 in Oeste 8.6 mph 17.3 mph 32.8% 0 in
14:44 82.8 °F 50.7 °F 29.9 in NO 8.7 mph 17 mph 32.9% 0 in
14:49 83.1 °F 50.5 °F 29.9 in NO 8.3 mph 12 mph 32.3% 0 in
14:54 83.5 °F 50.5 °F 29.9 in ONO 6.9 mph 15.9 mph 32.1% 0 in
14:59 83.3 °F 50 °F 29.9 in Oeste 7.6 mph 16.1 mph 31.6% 0 in
15:04 83.1 °F 50.2 °F 29.9 in Oeste 9.2 mph 16 mph 32% 0 in
15:09 83.7 °F 50.5 °F 29.9 in NO 8.4 mph 12.5 mph 31.8% 0 in
15:14 83.8 °F 50 °F 29.9 in NO 6.4 mph 14 mph 31% 0 in
15:19 83.8 °F 50 °F 29.9 in NO 6.8 mph 14 mph 31.1% 0 in
15:24 84 °F 50.5 °F 29.9 in NO 8.1 mph 16.3 mph 31.5% 0 in
15:29 84.2 °F 51.1 °F 29.9 in NNO 7.9 mph 16 mph 32% 0 in
15:34 84.6 °F 50.5 °F 29.9 in ONO 7.4 mph 17.3 mph 31% 0 in
15:39 84.6 °F 50.5 °F 29.9 in NO 7.6 mph 17 mph 30.9% 0 in
15:44 84.7 °F 50.7 °F 29.9 in ONO 8.1 mph 16.3 mph 30.9% 0 in
15:49 84.7 °F 50.7 °F 29.9 in ONO 8.5 mph 16 mph 31% 0 in
15:54 84.6 °F 50.7 °F 29.9 in ONO 9.7 mph 15 mph 31% 0 in
15:59 84.6 °F 50.5 °F 29.9 in NO 9.4 mph 15 mph 31% 0 in
16:04 84.7 °F 50.5 °F 29.9 in ONO 8.7 mph 15 mph 30.8% 0 in
16:09 84.9 °F 50.5 °F 29.9 in NO 8.1 mph 12.3 mph 30.4% 0 in
16:14 85.1 °F 50.2 °F 29.9 in NO 6.2 mph 16.3 mph 30% 0 in
16:19 85.1 °F 49.5 °F 29.9 in NO 6.8 mph 16 mph 29.2% 0 in
16:24 85.1 °F 49.8 °F 29.9 in ONO 8.5 mph 18.4 mph 29.7% 0 in
16:29 85.1 °F 49.3 °F 29.9 in ONO 8.3 mph 18.4 mph 29% 0 in
16:34 85.5 °F 49.8 °F 29.9 in ONO 7.6 mph 13 mph 29.3% 0 in
16:39 85.8 °F 49.8 °F 29.9 in ONO 7 mph 10.4 mph 29% 0 in
16:44 86 °F 49.5 °F 29.9 in NO 5.2 mph 12.7 mph 28.4% 0 in
16:49 86 °F 49.3 °F 29.9 in NO 5.7 mph 13 mph 28.1% 0 in
16:54 85.8 °F 48.9 °F 29.9 in NNO 6.9 mph 13 mph 28% 0 in
16:59 86 °F 48.7 °F 29.9 in ONO 7 mph 12 mph 27.6% 0 in
17:04 86.4 °F 48.4 °F 29.9 in ONO 7.4 mph 13.8 mph 27% 0 in
17:09 86.4 °F 48.4 °F 29.9 in ONO 7.5 mph 14 mph 27% 0 in
17:14 86.4 °F 48.4 °F 29.9 in NO 7.6 mph 17 mph 26.9% 0 in
17:19 86.4 °F 48.4 °F 29.9 in NO 7.7 mph 17.3 mph 26.9% 0 in
17:24 86.5 °F 47.8 °F 29.9 in NNO 8.1 mph 13 mph 26.2% 0 in
17:29 86.5 °F 47.7 °F 29.9 in North 7.4 mph 11.8 mph 26% 0 in
17:34 86.5 °F 48 °F 29.9 in NNO 5.4 mph 12 mph 26.4% 0 in
17:39 86.9 °F 47.5 °F 29.9 in NNE 5.2 mph 12 mph 25.7% 0 in
17:44 86.7 °F 46.2 °F 29.9 in North 4.7 mph 15 mph 24.5% 0 in
17:49 86.2 °F 45.1 °F 29.9 in NNE 5.4 mph 15 mph 24% 0 in
17:54 85.8 °F 44.8 °F 29.9 in NNE 7.4 mph 14.7 mph 24% 0 in
17:59 85.6 °F 44.8 °F 29.9 in NNE 7.5 mph 15 mph 24% 0 in
18:04 85.6 °F 44.8 °F 29.9 in NNE 7.6 mph 15 mph 24.1% 0 in
18:09 85.6 °F 44.6 °F 29.9 in NNE 7.3 mph 16.1 mph 24% 0 in
18:14 85.5 °F 44.6 °F 29.9 in NNE 6.4 mph 16 mph 24% 0 in
18:19 85.5 °F 45.1 °F 29.9 in NNE 6.3 mph 13 mph 24.6% 0 in
18:24 85.5 °F 45.3 °F 29.9 in NNE 6.2 mph 13.8 mph 24.7% 0 in
18:29 85.3 °F 44.4 °F 29.9 in NNO 6 mph 14 mph 24% 0 in
18:34 85.1 °F 44.8 °F 29.9 in North 5.4 mph 14 mph 24.4% 0 in
18:39 85.1 °F 44.2 °F 29.9 in North 5.6 mph 14 mph 24% 0 in
18:44 84.9 °F 44.1 °F 29.9 in NNO 6.2 mph 13 mph 24% 0 in
18:49 84.7 °F 43.9 °F 29.9 in NNO 6.3 mph 12 mph 24% 0 in
18:54 84.6 °F 44.8 °F 29.9 in NNO 6.4 mph 10 mph 24.9% 0 in
18:59 84.6 °F 44.8 °F 29.9 in NNO 6.3 mph 10.4 mph 25% 0 in
19:04 84.2 °F 44.8 °F 29.9 in NO 5.9 mph 10 mph 25.1% 0 in
19:09 84 °F 45.3 °F 29.9 in NNO 5.6 mph 8.1 mph 25.9% 0 in
19:14 84 °F 45.3 °F 29.9 in NO 4.7 mph 8 mph 26% 0 in
19:19 83.8 °F 45.3 °F 29.9 in NNO 4.4 mph 6 mph 26.1% 0 in
19:24 83.7 °F 45.1 °F 29.9 in NNO 3.6 mph 8.5 mph 26.1% 0 in
19:29 83.3 °F 44.8 °F 29.9 in NNO 3.7 mph 9 mph 26% 0 in
19:34 82.9 °F 44.4 °F 29.9 in NNO 4 mph 7.4 mph 25.9% 0 in
19:39 82.8 °F 44.1 °F 29.9 in NNO 3.8 mph 7 mph 25.7% 0 in
19:44 82.6 °F 43.2 °F 29.9 in North 3.1 mph 7 mph 25% 0 in
19:49 82.6 °F 43.2 °F 29.9 in NNO 3.1 mph 7 mph 25% 0 in
19:54 82.2 °F 42.6 °F 29.9 in NNO 3.1 mph 11.5 mph 24.8% 0 in
19:59 82 °F 42.6 °F 29.9 in NO 3.5 mph 12 mph 25% 0 in
20:04 81.9 °F 41.9 °F 29.9 in NNO 4.3 mph 13.8 mph 24.5% 0 in
20:09 81.5 °F 46.6 °F 29.9 in North 4.8 mph 15 mph 29.6% 0 in
20:14 81 °F 51.6 °F 29.9 in NNE 6.4 mph 15 mph 36.4% 0 in
20:19 79.7 °F 56.7 °F 29.9 in NNE 6.1 mph 10.7 mph 45.2% 0 in
20:24 78.4 °F 59 °F 29.9 in NNE 5.2 mph 11.2 mph 51.2% 0 in
20:29 77.5 °F 59.9 °F 29.9 in NNE 5.2 mph 12 mph 54.6% 0 in
20:34 77.2 °F 60.6 °F 29.9 in NNE 5.4 mph 9 mph 56.8% 0 in
20:39 76.6 °F 61.2 °F 29.9 in NNE 5.3 mph 9.2 mph 59% 0 in
20:44 76.1 °F 61.5 °F 29.9 in NNE 5.2 mph 10.4 mph 60.8% 0 in
20:49 75.7 °F 61.9 °F 29.9 in NNE 5.2 mph 10 mph 62.1% 0 in
20:54 75.6 °F 62.4 °F 29.9 in NNE 5.4 mph 10 mph 63.6% 0 in
20:59 75.4 °F 62.6 °F 29.9 in NNE 5.2 mph 9.7 mph 64.4% 0 in
21:04 75.2 °F 62.6 °F 29.9 in NNE 4.7 mph 10 mph 65.1% 0 in
21:09 75 °F 62.8 °F 29.9 in NNE 4.5 mph 7.4 mph 66% 0 in
21:14 74.8 °F 63.1 °F 29.9 in North 4 mph 7 mph 67% 0 in
21:19 74.7 °F 63.1 °F 29.9 in NNE 3.8 mph 6 mph 67.1% 0 in
21:24 74.5 °F 63.1 °F 29.9 in NE 3.1 mph 6 mph 68% 0 in
21:29 74.3 °F 63 °F 29.9 in NE 3.1 mph 6 mph 68% 0 in
21:34 73.9 °F 63.1 °F 29.9 in NNE 3.1 mph 6.2 mph 68.9% 0 in
21:39 73.8 °F 63 °F 29.9 in NNO 3.1 mph 6 mph 69% 0 in
21:44 73.8 °F 63 °F 29.9 in NO 3.1 mph 6.9 mph 69% 0 in
21:49 73.8 °F 63.3 °F 30 in NO 3 mph 7 mph 69.8% 0 in
21:54 73.8 °F 63.3 °F 30 in NO 2.9 mph 4.6 mph 70% 0 in
21:58 73.6 °F 63.1 °F 30 in NO 2.9 mph 6.2 mph 70% 0 in
22:04 73.4 °F 63 °F 30 in NNE 2.9 mph 5.2 mph 70% 0 in
22:09 73.2 °F 62.8 °F 30 in NO 2.9 mph 5 mph 70% 0 in
22:14 73.2 °F 62.8 °F 30 in NNE 2.9 mph 5.2 mph 70% 0 in
22:19 73 °F 62.8 °F 30 in NNE 2.9 mph 5 mph 70% 0 in
22:24 73 °F 62.6 °F 30 in NO 2.4 mph 5.8 mph 70% 0 in
22:29 72.9 °F 62.8 °F 30 in North 2.5 mph 6 mph 70.9% 0 in
22:34 72.7 °F 62.8 °F 30 in North 3.1 mph 6.9 mph 71% 0 in
22:39 72.7 °F 62.8 °F 30 in NNE 3 mph 7 mph 71% 0 in
22:44 72.7 °F 62.8 °F 30 in ESE 2.9 mph 5 mph 71% 0 in
22:49 72.5 °F 62.8 °F 30 in ESE 2.9 mph 5 mph 71.6% 0 in
22:54 72.3 °F 62.8 °F 30 in ESE 2.4 mph 4 mph 72% 0 in
22:59 72.3 °F 62.8 °F 30 in ESE 2 mph 2.3 mph 72% 0 in
23:04 72.1 °F 62.6 °F 30 in Calm   2.4 mph 72% 0 in
23:09 72.1 °F 62.6 °F 30 in ESE 0.1 mph 3.5 mph 72% 0 in
23:14 72.1 °F 63 °F 30 in Oeste 1.4 mph 3.5 mph 72.9% 0 in
23:19 72.1 °F 63 °F 30 in Oeste 1.4 mph 3.6 mph 73% 0 in
23:24 72 °F 63 °F 30 in Oeste 2 mph 4.6 mph 73.5% 0 in
23:29 72 °F 63.1 °F 30 in Oeste 2 mph 5 mph 74% 0 in
23:34 72 °F 63.1 °F 30 in Oeste 1.8 mph 4 mph 74% 0 in
23:39 71.8 °F 63.3 °F 30 in Oeste 1.9 mph 4.6 mph 74.8% 0 in
23:44 71.6 °F 63.3 °F 30 in Oeste 2.4 mph 5 mph 75% 0 in
23:49 71.4 °F 63.5 °F 30 in OSO 2.4 mph 3.5 mph 75.9% 0 in
23:54 71.4 °F 63.5 °F 30 in OSO 2 mph 3 mph 76% 0 in
23:59 71.4 °F 63.5 °F 30 in OSO 1.9 mph 3 mph 76% 0 in
Murcia-Puente Tocinos, España
Compliments of Weather Underground - 3 mb

La estación de MeteoMurcia.com, publica sus datos en los siguientes proyectos:

Weather Underground PWS IMURCIAP2 Meteoclimatic www.awekas.at

W3Counter
Web Analytics